createdAt,value
2023-04-02T00:01:26.797Z,11.10
2023-04-02T00:04:26.359Z,11.10
2023-04-02T00:07:30.713Z,11.09
2023-04-02T00:10:06.137Z,11.07
2023-04-02T00:13:07.559Z,11.07
2023-04-02T00:15:59.588Z,11.06
2023-04-02T00:18:41.728Z,11.05
2023-04-02T00:21:38.744Z,11.06
2023-04-02T00:24:31.533Z,11.04
2023-04-02T00:27:15.740Z,11.04
2023-04-02T00:30:00.145Z,11.03
2023-04-02T00:32:40.342Z,11.02
2023-04-02T00:35:34.310Z,11.01
2023-04-02T00:38:13.216Z,11.00
2023-04-02T00:41:00.232Z,10.99
2023-04-02T00:43:54.526Z,10.98
2023-04-02T00:46:49.681Z,10.98
2023-04-02T00:49:36.907Z,10.97
2023-04-02T00:52:32.262Z,10.98
2023-04-02T00:55:13.625Z,10.96
2023-04-02T00:57:54.025Z,10.95
2023-04-02T01:00:34.622Z,10.95
2023-04-02T01:03:38.854Z,10.95
2023-04-02T01:06:17.228Z,10.92
2023-04-02T01:09:10.584Z,10.92
2023-04-02T01:12:34.714Z,10.91
2023-04-02T01:15:31.219Z,10.89
2023-04-02T01:18:31.433Z,10.86
2023-04-02T01:21:23.669Z,10.85
2023-04-02T01:24:16.450Z,10.84
2023-04-02T01:27:16.206Z,10.85
2023-04-02T01:29:59.720Z,10.85
2023-04-02T01:32:51.958Z,10.83
2023-04-02T01:35:47.250Z,10.82
2023-04-02T01:38:27.283Z,10.81
2023-04-02T01:41:27.952Z,10.81
2023-04-02T01:44:26.371Z,10.81
2023-04-02T01:47:20.973Z,10.80
2023-04-02T01:50:31.444Z,10.78
2023-04-02T01:53:06.442Z,10.77
2023-04-02T01:56:01.095Z,10.77
2023-04-02T01:58:53.305Z,10.76
2023-04-02T02:01:51.853Z,10.74
2023-04-02T02:04:44.131Z,10.72
2023-04-02T02:07:36.166Z,10.70
2023-04-02T02:10:30.456Z,10.69
2023-04-02T02:13:05.382Z,10.69
2023-04-02T02:16:00.288Z,10.67
2023-04-02T02:18:54.971Z,10.67
2023-04-02T02:21:42.690Z,10.65
2023-04-02T02:24:37.240Z,10.65
2023-04-02T02:27:46.370Z,10.64
2023-04-02T02:30:41.399Z,10.62
2023-04-02T02:33:38.217Z,10.61
2023-04-02T02:36:35.002Z,10.60
2023-04-02T02:39:34.270Z,10.58
2023-04-02T02:42:19.993Z,10.59
2023-04-02T02:45:17.186Z,10.58
2023-04-02T02:48:00.114Z,10.57
2023-04-02T02:50:38.084Z,10.56
2023-04-02T02:53:20.919Z,10.55
2023-04-02T02:56:13.652Z,10.54
2023-04-02T02:59:09.330Z,10.53
2023-04-02T03:02:02.402Z,10.48
2023-04-02T03:04:51.235Z,10.48
2023-04-02T03:07:43.271Z,10.47
2023-04-02T03:10:24.531Z,10.47
2023-04-02T03:13:23.925Z,10.47
2023-04-02T03:16:08.648Z,10.45
2023-04-02T03:19:03.585Z,10.44
2023-04-02T03:22:03.112Z,10.43
2023-04-02T03:25:03.014Z,10.42
2023-04-02T03:28:01.832Z,10.41
2023-04-02T03:30:43.669Z,10.40
2023-04-02T03:33:29.151Z,10.39
2023-04-02T03:36:28.529Z,10.40
2023-04-02T03:39:19.658Z,10.39
2023-04-02T03:42:04.119Z,10.39
2023-04-02T03:45:00.014Z,10.38
2023-04-02T03:47:38.195Z,10.38
2023-04-02T03:50:20.412Z,10.39
2023-04-02T03:53:13.675Z,10.38
2023-04-02T03:56:07.741Z,10.37
2023-04-02T03:58:51.043Z,10.36
2023-04-02T04:01:49.061Z,10.37
2023-04-02T04:04:43.021Z,10.38
2023-04-02T04:07:28.996Z,10.38
2023-04-02T04:10:25.381Z,10.39
2023-04-02T04:13:24.293Z,10.38
2023-04-02T04:16:09.666Z,10.39
2023-04-02T04:19:06.600Z,10.39
2023-04-02T04:21:38.534Z,10.40
2023-04-02T04:24:23.924Z,10.40
2023-04-02T04:27:24.519Z,10.40
2023-04-02T04:30:24.399Z,10.40
2023-04-02T04:33:23.380Z,10.41
2023-04-02T04:36:28.564Z,10.41
2023-04-02T04:39:29.653Z,10.41
2023-04-02T04:42:25.222Z,10.40
2023-04-02T04:45:07.703Z,10.38
2023-04-02T04:48:04.395Z,10.35
2023-04-02T04:51:00.607Z,10.33
2023-04-02T04:53:55.119Z,10.27
2023-04-02T04:56:52.612Z,10.22
2023-04-02T04:59:48.850Z,10.18
2023-04-02T05:02:28.840Z,10.14
2023-04-02T05:05:22.806Z,10.10
2023-04-02T05:08:20.366Z,10.07
2023-04-02T05:11:03.022Z,10.06
2023-04-02T05:13:59.651Z,10.03
2023-04-02T05:16:41.768Z,10.00
2023-04-02T05:19:36.917Z,9.96
2023-04-02T05:22:26.027Z,9.94
2023-04-02T05:25:24.333Z,9.90
2023-04-02T05:28:21.330Z,9.84
2023-04-02T05:31:17.538Z,9.81
2023-04-02T05:34:11.617Z,9.77
2023-04-02T05:37:06.491Z,9.71
2023-04-02T05:39:51.296Z,9.67
2023-04-02T05:42:49.308Z,9.60
2023-04-02T05:45:29.592Z,9.56
2023-04-02T05:48:18.525Z,9.53
2023-04-02T05:51:16.813Z,9.51
2023-04-02T05:53:59.627Z,9.50
2023-04-02T05:56:55.132Z,9.47
2023-04-02T05:59:52.725Z,9.42
2023-04-02T06:02:54.873Z,9.34
2023-04-02T06:05:48.054Z,9.26
2023-04-02T06:08:45.142Z,9.18
2023-04-02T06:11:45.397Z,9.15
2023-04-02T06:14:37.420Z,9.11
2023-04-02T06:17:30.062Z,9.08
2023-04-02T06:20:23.065Z,9.05
2023-04-02T06:23:19.615Z,9.00
2023-04-02T06:26:17.780Z,8.93
2023-04-02T06:28:56.022Z,8.89
2023-04-02T06:31:51.700Z,8.79
2023-04-02T06:34:30.780Z,8.73
2023-04-02T06:37:28.997Z,8.69
2023-04-02T06:40:40.444Z,8.65
2023-04-02T06:43:20.323Z,8.60
2023-04-02T06:45:58.636Z,8.58
2023-04-02T06:48:42.751Z,8.55
2023-04-02T06:51:37.635Z,8.52
2023-04-02T06:54:29.734Z,8.48
2023-04-02T06:57:21.898Z,8.42
2023-04-02T07:00:26.467Z,8.35
2023-04-02T07:03:22.598Z,8.29
2023-04-02T07:05:54.668Z,8.22
2023-04-02T07:08:26.748Z,8.15
2023-04-02T07:11:21.183Z,8.08
2023-04-02T07:13:54.191Z,8.04
2023-04-02T07:16:47.018Z,7.99
2023-04-02T07:19:39.086Z,7.95
2023-04-02T07:22:31.287Z,7.93
2023-04-02T07:25:23.407Z,7.94
2023-04-02T07:27:58.879Z,7.96
2023-04-02T07:30:51.369Z,7.97
2023-04-02T07:33:28.321Z,7.97
2023-04-02T07:36:22.493Z,7.94
2023-04-02T07:39:14.540Z,7.93
2023-04-02T07:41:57.579Z,7.92
2023-04-02T07:44:49.612Z,7.91
2023-04-02T07:47:42.622Z,7.87
2023-04-02T07:50:35.037Z,7.84
2023-04-02T07:53:31.900Z,7.84
2023-04-02T07:56:25.792Z,7.88
2023-04-02T07:59:17.833Z,7.96
2023-04-02T08:02:15.869Z,8.01
2023-04-02T08:05:09.078Z,8.07
2023-04-02T08:07:43.483Z,8.10
2023-04-02T08:10:35.490Z,8.10
2023-04-02T08:13:27.593Z,8.10
2023-04-02T08:16:19.768Z,8.09
2023-04-02T08:19:11.832Z,8.03
2023-04-02T08:22:04.103Z,8.01
2023-04-02T08:24:56.389Z,8.01
2023-04-02T08:27:51.189Z,8.03
2023-04-02T08:30:43.402Z,8.02
2023-04-02T08:33:35.762Z,7.97
2023-04-02T08:36:31.870Z,7.98
2023-04-02T08:39:24.166Z,7.96
2023-04-02T08:42:06.062Z,7.93
2023-04-02T08:45:24.352Z,7.99
2023-04-02T08:48:18.390Z,8.02
2023-04-02T08:51:21.059Z,7.99
2023-04-02T08:54:29.058Z,8.01
2023-04-02T08:57:32.609Z,8.07
2023-04-02T09:00:34.116Z,8.12
2023-04-02T09:03:31.955Z,8.14
2023-04-02T09:06:26.112Z,8.13
2023-04-02T09:09:19.859Z,8.18
2023-04-02T09:12:17.358Z,8.27
2023-04-02T09:15:24.711Z,8.34
2023-04-02T09:18:18.381Z,8.36
2023-04-02T09:21:28.269Z,8.38
2023-04-02T09:24:20.392Z,8.41
2023-04-02T09:27:21.582Z,8.41
2023-04-02T09:30:42.845Z,8.42
2023-04-02T09:33:48.345Z,8.40
2023-04-02T09:36:41.059Z,8.40
2023-04-02T09:39:33.673Z,8.42
2023-04-02T09:42:36.397Z,8.41
2023-04-02T09:45:32.568Z,8.36
2023-04-02T09:48:30.663Z,8.32
2023-04-02T09:51:25.119Z,8.28
2023-04-02T09:54:19.394Z,8.25
2023-04-02T09:57:24.237Z,8.24
2023-04-02T10:00:32.117Z,8.24
2023-04-02T10:03:28.514Z,8.17
2023-04-02T10:06:22.057Z,8.12
2023-04-02T10:09:32.497Z,8.07
2023-04-02T10:12:25.988Z,8.03
2023-04-02T10:15:22.638Z,8.01
2023-04-02T10:18:22.279Z,7.99
2023-04-02T10:21:17.988Z,7.97
2023-04-02T10:24:13.703Z,7.90
2023-04-02T10:27:17.418Z,7.87
2023-04-02T10:30:24.983Z,7.85
2023-04-02T10:33:01.374Z,7.88
2023-04-02T10:35:58.491Z,7.91
2023-04-02T10:38:45.416Z,7.91
2023-04-02T10:41:29.713Z,7.91
2023-04-02T10:44:20.774Z,7.92
2023-04-02T10:47:31.048Z,7.94
2023-04-02T10:50:32.422Z,7.95
2023-04-02T10:53:34.901Z,7.98
2023-04-02T10:56:28.631Z,8.03
2023-04-02T10:59:27.793Z,7.97
2023-04-02T11:02:31.857Z,7.89
2023-04-02T11:05:36.659Z,7.84
2023-04-02T11:08:32.590Z,7.83
2023-04-02T11:11:24.566Z,7.85
2023-04-02T11:14:18.683Z,7.88
2023-04-02T11:17:16.703Z,7.89
2023-04-02T11:20:40.646Z,7.86
2023-04-02T11:23:36.187Z,7.89
2023-04-02T11:26:47.307Z,7.90
2023-04-02T11:29:41.532Z,7.89
2023-04-02T11:32:43.620Z,7.85
2023-04-02T11:35:42.140Z,7.84
2023-04-02T11:38:54.947Z,7.83
2023-04-02T11:42:03.416Z,7.84
2023-04-02T11:44:56.198Z,7.88
2023-04-02T11:48:28.990Z,7.88
2023-04-02T11:51:56.525Z,7.85
2023-04-02T11:55:24.962Z,7.79
2023-04-02T11:58:39.623Z,7.73
2023-04-02T12:01:56.728Z,7.80
2023-04-02T12:05:22.992Z,7.98
2023-04-02T12:08:30.451Z,8.06
2023-04-02T12:11:12.200Z,8.03
2023-04-02T12:13:58.537Z,8.02
2023-04-02T12:16:52.387Z,8.03
2023-04-02T12:19:30.634Z,7.99
2023-04-02T12:22:25.541Z,7.96
2023-04-02T12:25:29.840Z,7.93
2023-04-02T12:28:22.443Z,7.88
2023-04-02T12:31:17.653Z,7.86
2023-04-02T12:34:17.446Z,7.85
2023-04-02T12:36:57.199Z,7.85
2023-04-02T12:39:55.460Z,7.88
2023-04-02T12:42:37.838Z,7.90
2023-04-02T12:45:27.251Z,7.91
2023-04-02T12:48:07.323Z,7.94
2023-04-02T12:51:00.231Z,7.93
2023-04-02T12:53:38.023Z,7.92
2023-04-02T12:56:19.677Z,7.88
2023-04-02T12:58:58.468Z,7.83
2023-04-02T13:01:33.891Z,7.79
2023-04-02T13:04:12.182Z,7.76
2023-04-02T13:07:04.418Z,7.74
2023-04-02T13:09:48.797Z,7.69
2023-04-02T13:12:34.852Z,7.65
2023-04-02T13:15:22.085Z,7.61
2023-04-02T13:18:23.500Z,7.55
2023-04-02T13:21:00.030Z,7.52
2023-04-02T13:23:41.376Z,7.53
2023-04-02T13:26:24.485Z,7.52
2023-04-02T13:29:01.582Z,7.49
2023-04-02T13:31:36.804Z,7.47
2023-04-02T13:34:29.348Z,7.47
2023-04-02T13:37:21.420Z,7.47
2023-04-02T13:39:53.567Z,7.48
2023-04-02T13:42:46.945Z,7.47
2023-04-02T13:45:27.787Z,7.44
2023-04-02T13:48:01.974Z,7.39
2023-04-02T13:50:42.997Z,7.35
2023-04-02T13:53:26.649Z,7.32
2023-04-02T13:56:19.451Z,7.33
2023-04-02T13:59:11.673Z,7.38
2023-04-02T14:02:07.564Z,7.37
2023-04-02T14:04:50.647Z,7.36
2023-04-02T14:07:56.710Z,7.34
2023-04-02T14:10:49.306Z,7.33
2023-04-02T14:13:41.408Z,7.31
2023-04-02T14:16:37.013Z,7.29
2023-04-02T14:19:34.921Z,7.26
2023-04-02T14:22:25.457Z,7.21
2023-04-02T14:25:07.687Z,7.17
2023-04-02T14:27:55.869Z,7.16
2023-04-02T14:30:56.734Z,7.15
2023-04-02T14:33:41.396Z,7.12
2023-04-02T14:36:36.921Z,7.12
2023-04-02T14:39:26.186Z,7.09
2023-04-02T14:42:23.129Z,7.02
2023-04-02T14:45:07.321Z,6.99
2023-04-02T14:47:47.529Z,7.00
2023-04-02T14:50:29.471Z,7.04
2023-04-02T14:53:25.428Z,7.09
2023-04-02T14:56:09.299Z,7.14
2023-04-02T14:58:52.739Z,7.16
2023-04-02T15:01:33.628Z,7.14
2023-04-02T15:04:32.096Z,7.13
2023-04-02T15:07:28.518Z,7.11
2023-04-02T15:10:27.357Z,7.08
2023-04-02T15:13:22.508Z,7.05
2023-04-02T15:16:19.411Z,7.00
2023-04-02T15:18:56.263Z,6.96
2023-04-02T15:22:02.146Z,6.92
2023-04-02T15:24:48.784Z,6.90
2023-04-02T15:27:59.110Z,6.89
2023-04-02T15:30:43.215Z,6.90
2023-04-02T15:33:36.879Z,6.88
2023-04-02T15:36:26.682Z,6.84
2023-04-02T15:39:42.844Z,6.85
2023-04-02T15:42:22.846Z,6.87
2023-04-02T15:45:16.340Z,6.86
2023-04-02T15:48:02.060Z,6.87
2023-04-02T15:50:48.269Z,6.86
2023-04-02T15:53:34.518Z,6.87
2023-04-02T15:56:23.003Z,6.87
2023-04-02T15:59:09.252Z,6.85
2023-04-02T16:01:50.503Z,6.83
2023-04-02T16:04:33.262Z,6.83
2023-04-02T16:07:20.426Z,6.81
2023-04-02T16:09:58.892Z,6.80
2023-04-02T16:12:38.314Z,6.76
2023-04-02T16:15:23.558Z,6.72
2023-04-02T16:17:59.867Z,6.68
2023-04-02T16:20:36.190Z,6.67
2023-04-02T16:23:34.978Z,6.64
2023-04-02T16:26:19.308Z,6.56
2023-04-02T16:29:01.945Z,6.53
2023-04-02T16:32:03.380Z,6.49
2023-04-02T16:34:45.581Z,6.47
2023-04-02T16:37:29.923Z,6.44
2023-04-02T16:40:09.223Z,6.40
2023-04-02T16:43:16.435Z,6.39
2023-04-02T16:46:20.339Z,6.40
2023-04-02T16:49:26.739Z,6.40
2023-04-02T16:52:34.467Z,6.39
2023-04-02T16:55:25.745Z,6.39
2023-04-02T16:58:15.266Z,6.39
2023-04-02T17:01:16.296Z,6.36
2023-04-02T17:04:26.944Z,6.36
2023-04-02T17:07:28.941Z,6.36
2023-04-02T17:10:32.356Z,6.36
2023-04-02T17:13:32.543Z,6.37
2023-04-02T17:16:19.931Z,6.36
2023-04-02T17:19:14.425Z,6.32
2023-04-02T17:22:01.963Z,6.31
2023-04-02T17:24:41.617Z,6.32
2023-04-02T17:27:26.593Z,6.29
2023-04-02T17:30:18.562Z,6.29
2023-04-02T17:33:14.590Z,6.27
2023-04-02T17:36:07.097Z,6.21
2023-04-02T17:38:52.194Z,6.18
2023-04-02T17:41:49.252Z,6.16
2023-04-02T17:44:53.912Z,6.15
2023-04-02T17:47:37.456Z,6.14
2023-04-02T17:50:39.255Z,6.14
2023-04-02T17:53:31.663Z,6.13
2023-04-02T17:56:19.865Z,6.11
2023-04-02T17:59:12.315Z,6.10
2023-04-02T18:02:03.851Z,6.09
2023-04-02T18:04:50.770Z,6.08
2023-04-02T18:07:32.743Z,6.06
2023-04-02T18:10:21.011Z,6.06
2023-04-02T18:13:08.157Z,6.07
2023-04-02T18:16:07.341Z,6.06
2023-04-02T18:19:05.965Z,6.04
2023-04-02T18:21:47.858Z,6.02
2023-04-02T18:24:33.920Z,6.03
2023-04-02T18:27:20.974Z,6.02
2023-04-02T18:30:14.517Z,6.02
2023-04-02T18:33:09.270Z,6.00
2023-04-02T18:35:51.396Z,5.98
2023-04-02T18:38:48.626Z,5.96
2023-04-02T18:41:44.228Z,5.96
2023-04-02T18:44:54.732Z,5.95
2023-04-02T18:47:34.156Z,5.92
2023-04-02T18:50:17.489Z,5.91
2023-04-02T18:52:52.892Z,5.91
2023-04-02T18:55:28.057Z,5.90
2023-04-02T18:58:05.048Z,5.91
2023-04-02T19:00:59.557Z,5.90
2023-04-02T19:03:37.727Z,5.89
2023-04-02T19:06:15.633Z,5.90
2023-04-02T19:09:15.183Z,5.91
2023-04-02T19:11:49.227Z,5.91
2023-04-02T19:14:32.242Z,5.90
2023-04-02T19:17:20.927Z,5.91
2023-04-02T19:20:04.789Z,5.90
2023-04-02T19:22:45.717Z,5.90
2023-04-02T19:25:37.827Z,5.92
2023-04-02T19:28:34.944Z,5.95
2023-04-02T19:31:29.249Z,5.97
2023-04-02T19:34:16.645Z,6.00
2023-04-02T19:37:16.738Z,5.99
2023-04-02T19:40:30.731Z,5.98
2023-04-02T19:43:23.348Z,5.96
2023-04-02T19:45:56.265Z,5.92
2023-04-02T19:48:42.442Z,5.88
2023-04-02T19:51:34.825Z,5.86
2023-04-02T19:54:27.228Z,5.85
2023-04-02T19:57:03.919Z,5.82
2023-04-02T19:59:37.402Z,5.78
2023-04-02T20:02:29.715Z,5.75
2023-04-02T20:05:08.331Z,5.73
2023-04-02T20:08:00.305Z,5.71
2023-04-02T20:10:52.440Z,5.70
2023-04-02T20:13:44.474Z,5.68
2023-04-02T20:16:38.603Z,5.68
2023-04-02T20:19:19.595Z,5.68
2023-04-02T20:22:11.682Z,5.64
2023-04-02T20:25:03.647Z,5.57
2023-04-02T20:27:38.267Z,5.55
2023-04-02T20:30:30.612Z,5.56
2023-04-02T20:33:05.618Z,5.55
2023-04-02T20:35:37.792Z,5.56
2023-04-02T20:38:30.947Z,5.54
2023-04-02T20:41:23.585Z,5.52
2023-04-02T20:44:15.837Z,5.52
2023-04-02T20:46:58.359Z,5.50
2023-04-02T20:49:51.213Z,5.50
2023-04-02T20:52:35.150Z,5.47
2023-04-02T20:55:11.953Z,5.47
2023-04-02T20:57:52.475Z,5.46
2023-04-02T21:00:40.659Z,5.44
2023-04-02T21:03:32.922Z,5.43
2023-04-02T21:06:26.264Z,5.41
2023-04-02T21:09:08.867Z,5.38
2023-04-02T21:12:01.223Z,5.35
2023-04-02T21:14:57.303Z,5.31
2023-04-02T21:17:35.293Z,5.30
2023-04-02T21:20:13.765Z,5.30
2023-04-02T21:23:05.941Z,5.29
2023-04-02T21:26:02.928Z,5.29
2023-04-02T21:28:55.617Z,5.30
2023-04-02T21:31:32.058Z,5.30
2023-04-02T21:34:24.200Z,5.29
2023-04-02T21:37:16.200Z,5.28
2023-04-02T21:40:10.463Z,5.28
2023-04-02T21:43:02.717Z,5.26
2023-04-02T21:45:35.049Z,5.24
2023-04-02T21:48:10.572Z,5.21
2023-04-02T21:50:42.483Z,5.18
2023-04-02T21:53:17.090Z,5.17
2023-04-02T21:55:49.286Z,5.18
2023-04-02T21:58:41.615Z,5.20
2023-04-02T22:01:36.392Z,5.17
2023-04-02T22:04:30.677Z,5.14
2023-04-02T22:07:11.272Z,5.09
2023-04-02T22:10:03.341Z,5.02
2023-04-02T22:12:44.423Z,4.98
2023-04-02T22:15:16.388Z,4.97
2023-04-02T22:17:53.525Z,4.94
2023-04-02T22:20:34.669Z,4.92
2023-04-02T22:23:28.865Z,4.91
2023-04-02T22:26:11.095Z,4.90
2023-04-02T22:29:03.921Z,4.86
2023-04-02T22:31:39.153Z,4.82
2023-04-02T22:34:11.210Z,4.79
2023-04-02T22:36:45.284Z,4.75
2023-04-02T22:39:24.708Z,4.70
2023-04-02T22:42:03.840Z,4.70
2023-04-02T22:44:38.622Z,4.69
2023-04-02T22:47:30.774Z,4.69
2023-04-02T22:50:22.824Z,4.68
2023-04-02T22:53:15.248Z,4.66
2023-04-02T22:56:09.252Z,4.65
2023-04-02T22:59:01.353Z,4.63
2023-04-02T23:01:53.487Z,4.62
2023-04-02T23:04:27.744Z,4.62
2023-04-02T23:07:19.989Z,4.63
2023-04-02T23:10:12.446Z,4.63
2023-04-02T23:13:04.398Z,4.60
2023-04-02T23:15:56.557Z,4.57
2023-04-02T23:18:34.879Z,4.54
2023-04-02T23:21:27.871Z,4.52
2023-04-02T23:24:02.508Z,4.49
2023-04-02T23:26:41.722Z,4.46
2023-04-02T23:29:33.686Z,4.45
2023-04-02T23:32:15.652Z,4.46
2023-04-02T23:34:52.826Z,4.46
2023-04-02T23:37:35.092Z,4.46
2023-04-02T23:40:27.164Z,4.43
2023-04-02T23:43:19.241Z,4.39
2023-04-02T23:46:11.887Z,4.37
2023-04-02T23:48:46.748Z,4.38
2023-04-02T23:51:28.402Z,4.39
2023-04-02T23:54:03.336Z,4.38
2023-04-02T23:56:40.892Z,4.38
2023-04-02T23:59:32.846Z,4.38
